Time;durP1;ratioP1;P1;durP2;ratioP2;P2;SDS_P1;SDS_P2;PMS_P1;PMS_P2;Temp;Humidity;BMP_temperature;BMP_pressure;BME280_temperature;BME280_humidity;BME280_pressure;Samples;Min_cycle;Max_cycle;Signal;HPM_P1;HPM_P2
2023/02/13 00:01:16;;;;;;;21.98;15.40;;;5.60;99.90;;;;;;4954962;28;20483;-90
2023/02/13 00:03:42;;;;;;;23.63;15.02;;;5.60;99.90;;;;;;4954604;28;20038;-88
2023/02/13 00:06:08;;;;;;;22.02;14.43;;;5.60;99.90;;;;;;4954539;29;20385;-88
2023/02/13 00:08:34;;;;;;;20.98;14.23;;;5.60;99.90;;;;;;4954677;28;20039;-88
2023/02/13 00:11:00;;;;;;;22.73;14.75;;;5.60;99.90;;;;;;4954087;29;20031;-88
2023/02/13 00:13:26;;;;;;;23.02;14.60;;;5.60;99.90;;;;;;4938549;29;20473;-86
2023/02/13 00:16:00;;;;;;;21.23;14.98;;;5.60;99.90;;;;;;4954588;28;20070;-87
2023/02/13 00:18:26;;;;;;;22.55;14.73;;;5.60;99.90;;;;;;4938694;29;20031;-88
2023/02/13 00:21:06;;;;;;;18.48;12.63;;;5.60;99.90;;;;;;4954681;29;20035;-88
2023/02/13 00:23:34;;;;;;;22.17;13.87;;;5.60;99.90;;;;;;4954409;28;20126;-88
2023/02/13 00:26:03;;;;;;;21.52;14.00;;;5.60;99.90;;;;;;4938121;29;20310;-88
2023/02/13 00:28:29;;;;;;;20.75;13.55;;;5.60;99.90;;;;;;4954503;29;20556;-89
2023/02/13 00:31:02;;;;;;;18.23;12.55;;;5.60;99.90;;;;;;4954371;28;20150;-88
2023/02/13 00:33:28;;;;;;;20.65;13.25;;;5.60;99.90;;;;;;4938369;29;20023;-89
2023/02/13 00:36:09;;;;;;;17.20;11.88;;;5.60;99.90;;;;;;4954433;28;20624;-88
2023/02/13 00:38:36;;;;;;;18.23;12.10;;;5.60;99.90;;;;;;4954373;29;20038;-89
2023/02/13 00:41:03;;;;;;;19.23;12.38;;;5.60;99.90;;;;;;4954084;29;20031;-88
2023/02/13 00:43:29;;;;;;;19.60;12.82;;;5.60;99.90;;;;;;4938562;29;20027;-88
2023/02/13 00:45:55;;;;;;;21.75;11.82;;;5.60;99.90;;;;;;4954590;29;20032;-88
2023/02/13 00:48:20;;;;;;;18.42;11.93;;;5.60;99.90;;;;;;4954143;29;20126;-88
2023/02/13 00:50:47;;;;;;;15.63;11.20;;;5.60;99.90;;;;;;4953900;29;20035;-87
2023/02/13 00:53:12;;;;;;;21.02;12.55;;;5.70;99.90;;;;;;4937946;28;20572;-89
2023/02/13 00:55:38;;;;;;;21.83;12.27;;;5.60;99.90;;;;;;4953917;29;20106;-88
2023/02/13 00:58:04;;;;;;;18.40;12.13;;;5.60;99.90;;;;;;4953744;29;20509;-88
2023/02/13 01:00:29;;;;;;;19.75;12.95;;;5.70;99.90;;;;;;4953685;29;20067;-87
2023/02/13 01:02:55;;;;;;;18.67;13.75;;;5.70;99.90;;;;;;4953953;29;20055;-88
2023/02/13 01:05:21;;;;;;;21.10;12.07;;;5.70;99.90;;;;;;4954066;29;20035;-88
2023/02/13 01:07:46;;;;;;;21.58;12.40;;;5.70;99.90;;;;;;4954136;29;20122;-89
2023/02/13 01:10:12;;;;;;;20.70;12.93;;;5.70;99.90;;;;;;4955641;28;20023;-89
2023/02/13 01:12:37;;;;;;;18.52;11.57;;;5.70;99.90;;;;;;4957616;28;20480;-88
2023/02/13 01:15:04;;;;;;;20.75;13.30;;;5.70;99.90;;;;;;4955882;28;20123;-89
2023/02/13 01:17:30;;;;;;;19.25;13.48;;;5.70;99.90;;;;;;4954257;28;20418;-88
2023/02/13 01:19:56;;;;;;;22.08;14.43;;;5.70;99.90;;;;;;4937823;29;20031;-88
2023/02/13 01:22:21;;;;;;;22.30;13.35;;;5.70;99.90;;;;;;4952609;28;20445;-89
2023/02/13 01:24:47;;;;;;;22.23;13.65;;;5.70;99.90;;;;;;4953464;28;20138;-89
2023/02/13 01:27:13;;;;;;;20.20;12.35;;;5.70;99.90;;;;;;4953650;28;20114;-88
2023/02/13 01:29:38;;;;;;;21.85;13.43;;;5.70;99.90;;;;;;4953540;28;20028;-88
2023/02/13 01:32:04;;;;;;;19.27;13.13;;;5.70;99.90;;;;;;4953407;28;20485;-89
2023/02/13 01:34:32;;;;;;;22.35;14.45;;;5.70;99.90;;;;;;4937562;29;20027;-89
2023/02/13 01:36:58;;;;;;;21.83;14.48;;;5.70;99.90;;;;;;4953824;28;20032;-87
2023/02/13 01:39:24;;;;;;;24.02;14.07;;;5.70;99.90;;;;;;4937803;29;20034;-88
2023/02/13 01:41:50;;;;;;;21.48;13.75;;;5.70;99.90;;;;;;4953677;29;20054;-88
2023/02/13 01:44:48;;;;;;;21.48;14.13;;;5.70;99.90;;;;;;4954462;28;20477;-88
2023/02/13 01:47:27;;;;;;;23.95;15.25;;;5.70;99.90;;;;;;4941925;29;20031;-87
2023/02/13 01:50:05;;;;;;;19.33;12.10;;;5.70;99.90;;;;;;4957905;29;20067;-88
2023/02/13 01:52:31;;;;;;;24.85;15.23;;;5.70;99.90;;;;;;4956767;29;20039;-88
2023/02/13 01:54:57;;;;;;;23.92;14.05;;;5.70;99.90;;;;;;4955339;28;20032;-88
2023/02/13 01:57:25;;;;;;;23.33;15.45;;;5.70;99.90;;;;;;4953903;28;20036;-88
2023/02/13 01:59:58;;;;;;;22.00;14.20;;;5.70;99.90;;;;;;4953148;29;20110;-89
2023/02/13 02:02:24;;;;;;;20.60;13.40;;;5.70;99.90;;;;;;4937754;29;20118;-87
2023/02/13 02:04:51;;;;;;;20.95;14.15;;;5.70;99.90;;;;;;4953275;28;20039;-88
2023/02/13 02:07:21;;;;;;;22.67;14.13;;;5.70;99.90;;;;;;4953038;28;20039;-88
2023/02/13 02:09:48;;;;;;;22.95;14.55;;;5.70;99.90;;;;;;4937071;29;20036;-88
2023/02/13 02:12:28;;;;;;;20.45;13.57;;;5.70;99.90;;;;;;4952888;29;20038;-88
2023/02/13 02:14:56;;;;;;;22.50;13.95;;;5.70;99.90;;;;;;4953330;28;20027;-89
2023/02/13 02:17:24;;;;;;;21.40;13.68;;;5.70;99.90;;;;;;4953258;29;20027;-89
2023/02/13 02:20:05;;;;;;;22.85;14.85;;;5.70;99.90;;;;;;4954334;29;20031;-89
2023/02/13 02:22:54;;;;;;;21.95;13.52;;;5.70;99.90;;;;;;4953866;28;20031;-88
2023/02/13 02:25:46;;;;;;;18.40;13.35;;;5.70;99.90;;;;;;4956109;28;20043;-88
2023/02/13 02:28:27;;;;;;;21.45;14.18;;;5.60;99.90;;;;;;4956475;28;20051;-89
2023/02/13 02:31:22;;;;;;;24.63;14.27;;;5.60;99.90;;;;;;4956152;28;20043;-89
2023/02/13 02:34:01;;;;;;;19.98;12.60;;;5.70;99.90;;;;;;4959075;28;20047;-88
2023/02/13 02:36:52;;;;;;;21.38;13.65;;;5.70;99.90;;;;;;4959923;28;20042;-88
2023/02/13 02:39:29;;;;;;;21.38;13.80;;;5.70;99.90;;;;;;4959807;28;20034;-89
2023/02/13 02:42:15;;;;;;;23.27;13.10;;;5.70;99.90;;;;;;4960029;28;20046;-89
2023/02/13 02:45:03;;;;;;;20.90;13.13;;;5.70;99.90;;;;;;4959950;28;20558;-88
2023/02/13 02:50:34;;;;;;;22.33;14.48;;;5.70;99.90;;;;;;4976905;28;20109;-88
2023/02/13 02:53:21;;;;;;;20.63;13.45;;;5.70;99.90;;;;;;4959547;28;20031;-89
2023/02/13 02:55:52;;;;;;;20.30;13.80;;;5.70;99.90;;;;;;4959583;28;20030;-89
2023/02/13 03:07:00;;;;;;;20.73;12.63;;;5.60;99.90;;;;;;4976737;28;20404;-89
2023/02/13 03:15:06;;;;;;;19.83;12.63;;;5.60;99.90;;;;;;4976589;28;20178;-90
2023/02/13 03:24:25;;;;;;;16.10;10.95;;;5.60;99.90;;;;;;4878674;29;20117;-88
2023/02/13 03:27:14;;;;;;;18.80;11.57;;;5.60;99.90;;;;;;4860702;29;20533;-88
2023/02/13 03:30:06;;;;;;;18.30;10.30;;;5.60;99.90;;;;;;4878639;29;20092;-88
2023/02/13 03:33:05;;;;;;;18.30;11.57;;;5.50;99.90;;;;;;4878622;29;20041;-87
2023/02/13 03:38:58;;;;;;;18.05;11.77;;;5.50;99.90;;;;;;4864536;29;20123;-87
2023/02/13 03:41:47;;;;;;;16.52;10.75;;;5.50;99.90;;;;;;4878346;29;20041;-87
2023/02/13 03:44:21;;;;;;;18.20;11.27;;;5.50;99.90;;;;;;4878456;29;20492;-87
2023/02/13 03:46:49;;;;;;;17.40;10.98;;;5.50;99.90;;;;;;4878859;29;20041;-88
2023/02/13 03:50:06;;;;;;;15.63;10.82;;;5.50;99.90;;;;;;4878218;29;20040;-87
2023/02/13 03:52:52;;;;;;;16.27;10.90;;;5.50;99.90;;;;;;4878236;29;20049;-90
2023/02/13 04:01:03;;;;;;;17.47;11.50;;;5.50;99.90;;;;;;4956194;29;20094;-88
2023/02/13 04:03:32;;;;;;;16.27;11.05;;;5.50;99.90;;;;;;4938790;29;20777;-89
2023/02/13 04:06:09;;;;;;;15.13;10.63;;;5.50;99.90;;;;;;4938835;29;20027;-88
2023/02/13 04:08:34;;;;;;;16.55;10.98;;;5.50;99.90;;;;;;4938618;29;20038;-89
2023/02/13 04:11:03;;;;;;;17.38;11.07;;;5.50;99.90;;;;;;4938486;29;20027;-90
2023/02/13 04:13:34;;;;;;;17.60;11.40;;;5.50;99.90;;;;;;4938684;29;20480;-88
2023/02/13 04:16:12;;;;;;;19.65;11.52;;;5.50;99.90;;;;;;4938995;29;20035;-88
2023/02/13 04:18:38;;;;;;;16.40;9.73;;;5.50;99.90;;;;;;4938549;29;20067;-89
2023/02/13 04:21:06;;;;;;;20.05;11.77;;;5.50;99.90;;;;;;4938752;29;20031;-88
2023/02/13 04:23:32;;;;;;;19.55;10.60;;;5.50;99.90;;;;;;4938796;29;20067;-89
2023/02/13 04:26:01;;;;;;;18.08;10.82;;;5.50;99.90;;;;;;4938953;29;20054;-89
2023/02/13 04:28:27;;;;;;;17.83;12.02;;;5.50;99.90;;;;;;4939109;29;20027;-89
2023/02/13 04:30:52;;;;;;;17.90;10.93;;;5.50;99.90;;;;;;4938640;29;20401;-89
2023/02/13 04:33:18;;;;;;;19.60;11.50;;;5.50;99.90;;;;;;4938539;29;20374;-88
2023/02/13 04:35:44;;;;;;;18.13;10.85;;;5.50;99.90;;;;;;4938550;29;20111;-88
2023/02/13 04:38:09;;;;;;;22.45;12.05;;;5.50;99.90;;;;;;4938182;29;20138;-89
2023/02/13 04:40:35;;;;;;;18.17;10.85;;;5.40;99.90;;;;;;4938567;29;20031;-90
2023/02/13 04:43:01;;;;;;;21.35;12.48;;;5.50;99.90;;;;;;4938810;29;20031;-88
2023/02/13 04:45:26;;;;;;;18.92;11.52;;;5.40;99.90;;;;;;4939265;29;20034;-89
2023/02/13 04:47:54;;;;;;;22.38;11.68;;;5.40;99.90;;;;;;4941574;29;20031;-88
2023/02/13 04:50:20;;;;;;;20.73;11.63;;;5.50;99.90;;;;;;4942997;29;20130;-87
2023/02/13 04:52:46;;;;;;;19.95;11.95;;;5.40;99.90;;;;;;4942865;29;20038;-87
2023/02/13 04:55:12;;;;;;;19.27;11.68;;;5.50;99.90;;;;;;4957394;28;20489;-86
2023/02/13 04:57:38;;;;;;;18.55;10.55;;;5.50;99.90;;;;;;4938880;29;20545;-87
2023/02/13 05:00:05;;;;;;;19.02;12.18;;;5.50;99.90;;;;;;4938639;29;20134;-88
2023/02/13 05:02:31;;;;;;;22.48;11.73;;;5.50;99.90;;;;;;4938902;28;20050;-88
2023/02/13 05:04:56;;;;;;;18.85;10.93;;;5.50;99.90;;;;;;4938463;29;20071;-89
2023/02/13 05:07:22;;;;;;;21.38;13.07;;;5.50;99.90;;;;;;4955099;29;20050;-89
2023/02/13 05:09:48;;;;;;;21.17;12.88;;;5.50;99.90;;;;;;4937951;29;20034;-89
2023/02/13 05:12:14;;;;;;;23.33;13.50;;;5.50;99.90;;;;;;4937662;29;20039;-88
2023/02/13 05:14:39;;;;;;;21.50;13.45;;;5.50;99.90;;;;;;4938033;29;20063;-89
2023/02/13 05:17:05;;;;;;;26.58;12.93;;;5.50;99.90;;;;;;4937713;29;20027;-90
2023/02/13 05:19:31;;;;;;;24.45;13.32;;;5.50;99.90;;;;;;4938124;29;20029;-89
2023/02/13 05:24:40;;;;;;;26.13;11.68;;;5.50;99.90;;;;;;4954605;29;20186;-88
2023/02/13 05:27:06;;;;;;;22.63;12.18;;;5.50;99.90;;;;;;4937536;29;20761;-89
2023/02/13 05:29:32;;;;;;;25.20;13.05;;;5.50;99.90;;;;;;4937592;29;20152;-89
2023/02/13 05:31:58;;;;;;;23.75;12.20;;;5.50;99.90;;;;;;4937549;29;20130;-88
2023/02/13 05:34:26;;;;;;;26.17;13.77;;;5.50;99.90;;;;;;4937621;29;20106;-88
2023/02/13 05:36:52;;;;;;;23.40;13.25;;;5.50;99.90;;;;;;4937568;29;20038;-88
2023/02/13 05:39:18;;;;;;;24.75;11.85;;;5.40;99.90;;;;;;4937780;29;20037;-88
2023/02/13 05:41:44;;;;;;;28.25;13.85;;;5.40;99.90;;;;;;4937468;29;20060;-88
2023/02/13 05:44:11;;;;;;;24.80;13.38;;;5.50;99.90;;;;;;4937429;29;20030;-88
2023/02/13 05:46:38;;;;;;;21.98;12.60;;;5.40;99.90;;;;;;4937442;29;20035;-88
2023/02/13 05:49:05;;;;;;;26.08;13.90;;;5.40;99.90;;;;;;4937359;29;20434;-88
2023/02/13 05:51:31;;;;;;;25.00;13.32;;;5.40;99.90;;;;;;4937112;29;20062;-89
2023/02/13 05:53:56;;;;;;;25.38;13.60;;;5.40;99.90;;;;;;4937089;29;20493;-88
2023/02/13 05:56:22;;;;;;;23.88;11.38;;;5.40;99.90;;;;;;4937267;29;20485;-89
2023/02/13 05:58:51;;;;;;;29.83;14.85;;;5.40;99.90;;;;;;4937192;29;20469;-89
2023/02/13 06:01:17;;;;;;;26.90;13.65;;;5.40;99.90;;;;;;4953753;28;20448;-88
2023/02/13 06:03:42;;;;;;;28.52;14.35;;;5.30;99.90;;;;;;4956399;28;20031;-87
2023/02/13 06:06:08;;;;;;;28.50;13.95;;;5.40;99.90;;;;;;4956311;28;20553;-89
2023/02/13 06:08:34;;;;;;;26.95;14.27;;;5.30;99.90;;;;;;4958875;28;20476;-88
2023/02/13 06:11:00;;;;;;;26.65;12.68;;;5.40;99.90;;;;;;4960027;28;20030;-88
2023/02/13 06:13:25;;;;;;;28.88;13.85;;;5.30;99.90;;;;;;4960030;28;20118;-88
2023/02/13 06:15:51;;;;;;;28.55;14.10;;;5.40;99.90;;;;;;4960345;28;20081;-89
2023/02/13 06:18:17;;;;;;;25.55;11.88;;;5.40;99.90;;;;;;4959995;28;20113;-88
2023/02/13 06:20:43;;;;;;;30.45;14.10;;;5.30;99.90;;;;;;4959820;28;20483;-88
2023/02/13 06:23:08;;;;;;;29.52;13.52;;;5.30;99.90;;;;;;4959826;28;20077;-89
2023/02/13 06:25:35;;;;;;;28.48;13.95;;;5.40;99.90;;;;;;4959955;28;20066;-88
2023/02/13 06:28:02;;;;;;;33.10;13.73;;;5.30;99.90;;;;;;4959666;28;20480;-89
2023/02/13 06:30:27;;;;;;;31.67;13.85;;;5.30;99.90;;;;;;4959683;28;20516;-88
2023/02/13 06:32:53;;;;;;;32.65;15.93;;;5.30;99.90;;;;;;4960004;28;20046;-88
2023/02/13 06:35:19;;;;;;;28.88;14.65;;;5.40;99.90;;;;;;4960268;28;20019;-88
2023/02/13 06:37:45;;;;;;;27.60;13.52;;;5.30;99.90;;;;;;4959698;28;20038;-89
2023/02/13 06:40:12;;;;;;;30.90;14.15;;;5.40;99.90;;;;;;4959647;28;20037;-89
2023/02/13 06:42:38;;;;;;;30.50;14.40;;;5.40;99.90;;;;;;4959758;28;20030;-88
2023/02/13 06:45:04;;;;;;;27.90;13.00;;;5.40;99.90;;;;;;4960140;28;20504;-89
2023/02/13 06:47:30;;;;;;;33.83;14.32;;;5.40;99.90;;;;;;4959581;28;20048;-89
2023/02/13 06:49:55;;;;;;;27.02;13.30;;;5.40;99.90;;;;;;4959973;28;20026;-88
2023/02/13 06:52:21;;;;;;;36.40;17.00;;;5.40;99.90;;;;;;4959993;28;20045;-89
2023/02/13 06:54:47;;;;;;;35.50;16.05;;;5.40;99.90;;;;;;4959627;28;20026;-89
2023/02/13 06:57:12;;;;;;;28.52;13.98;;;5.40;99.90;;;;;;4956640;28;20053;-88
2023/02/13 06:59:38;;;;;;;29.25;13.75;;;5.40;99.90;;;;;;4958908;28;20023;-88
2023/02/13 07:02:04;;;;;;;28.35;12.98;;;5.40;99.90;;;;;;4957330;28;20034;-89
2023/02/13 07:04:30;;;;;;;28.85;12.65;;;5.40;99.90;;;;;;4973043;28;20027;-87
2023/02/13 07:06:56;;;;;;;35.15;15.43;;;5.40;99.90;;;;;;4957441;28;20031;-90
2023/02/13 07:09:23;;;;;;;29.35;13.25;;;5.40;99.90;;;;;;4954428;28;20038;-90
2023/02/13 07:11:49;;;;;;;30.17;13.32;;;5.50;99.90;;;;;;4956827;28;20118;-89
2023/02/13 07:14:14;;;;;;;31.95;14.75;;;5.40;99.90;;;;;;4956832;28;20078;-90
2023/02/13 07:16:40;;;;;;;29.98;13.40;;;5.40;99.90;;;;;;4956971;28;20058;-89
2023/02/13 07:19:06;;;;;;;30.27;12.93;;;5.40;99.90;;;;;;4957230;28;20026;-89
2023/02/13 07:21:31;;;;;;;30.80;14.38;;;5.40;99.90;;;;;;4958104;28;20062;-90
2023/02/13 07:23:57;;;;;;;33.25;13.93;;;5.40;99.90;;;;;;4957887;28;20492;-90
2023/02/13 07:26:23;;;;;;;38.03;15.38;;;5.40;99.90;;;;;;4957203;28;20445;-88
2023/02/13 07:28:48;;;;;;;36.47;14.95;;;5.40;99.90;;;;;;4957229;28;20018;-88
2023/02/13 07:31:14;;;;;;;35.83;16.27;;;5.40;99.90;;;;;;4958313;28;20369;-88
2023/02/13 07:33:40;;;;;;;27.35;12.15;;;5.40;99.90;;;;;;4958999;28;20050;-88
2023/02/13 07:36:06;;;;;;;34.38;15.93;;;5.40;99.90;;;;;;4959138;28;20026;-88
2023/02/13 07:38:32;;;;;;;35.97;16.33;;;5.40;99.90;;;;;;4958954;28;20053;-89
2023/02/13 07:40:59;;;;;;;31.88;13.98;;;5.40;99.90;;;;;;4960977;28;20477;-87
2023/02/13 07:43:25;;;;;;;34.65;14.60;;;5.40;99.90;;;;;;4963860;28;20035;-89
2023/02/13 07:45:54;;;;;;;32.20;13.77;;;5.40;99.90;;;;;;4963158;28;20110;-88
2023/02/13 07:48:25;;;;;;;33.03;14.98;;;5.40;99.90;;;;;;4963426;28;20393;-88
2023/02/13 07:50:51;;;;;;;33.47;15.38;;;5.40;99.90;;;;;;4962541;28;20138;-88
2023/02/13 07:53:16;;;;;;;29.98;14.32;;;5.40;99.90;;;;;;4963030;28;20505;-88
2023/02/13 07:55:42;;;;;;;34.33;15.10;;;5.40;99.90;;;;;;4959412;28;20550;-89
2023/02/13 07:58:08;;;;;;;31.35;14.18;;;5.40;99.90;;;;;;4959502;28;20027;-88
2023/02/13 08:00:33;;;;;;;33.22;13.75;;;5.40;99.90;;;;;;4959034;28;20026;-89
2023/02/13 08:03:00;;;;;;;33.13;14.77;;;5.40;99.90;;;;;;4959463;28;20026;-90
2023/02/13 08:05:26;;;;;;;33.85;16.20;;;5.40;99.90;;;;;;4959602;28;20031;-89
2023/02/13 08:07:52;;;;;;;35.35;14.95;;;5.40;99.90;;;;;;4959053;28;20039;-88
2023/02/13 08:13:03;;;;;;;34.65;15.23;;;5.40;99.90;;;;;;4976265;28;20045;-89
2023/02/13 08:15:29;;;;;;;33.17;15.63;;;5.40;99.90;;;;;;4958645;28;20449;-89
2023/02/13 08:17:55;;;;;;;40.75;16.45;;;5.40;99.90;;;;;;4958471;28;20121;-89
2023/02/13 08:20:22;;;;;;;36.30;17.90;;;5.40;99.90;;;;;;4958371;28;20031;-89
2023/02/13 08:22:48;;;;;;;35.42;16.00;;;5.50;99.90;;;;;;4958490;28;20050;-89
2023/02/13 08:25:14;;;;;;;40.83;17.90;;;5.40;99.90;;;;;;4958441;28;20045;-88
2023/02/13 08:27:40;;;;;;;38.58;16.42;;;5.40;99.90;;;;;;4958588;28;20023;-88
2023/02/13 08:30:06;;;;;;;38.40;14.98;;;5.50;99.90;;;;;;4957778;28;20029;-88
2023/02/13 08:32:32;;;;;;;37.88;16.63;;;5.50;99.90;;;;;;4958598;28;20046;-88
2023/02/13 08:35:00;;;;;;;33.47;16.13;;;5.50;99.90;;;;;;4958314;28;20042;-88
2023/02/13 08:37:26;;;;;;;33.58;15.55;;;5.50;99.90;;;;;;4958808;28;20141;-88
2023/02/13 08:39:52;;;;;;;35.03;16.90;;;5.50;99.90;;;;;;4958599;28;20048;-89
2023/02/13 08:42:17;;;;;;;37.95;15.70;;;5.50;99.90;;;;;;4958820;28;20023;-89
2023/02/13 08:44:46;;;;;;;30.92;14.73;;;5.50;99.90;;;;;;4958831;28;20027;-88
2023/02/13 08:47:12;;;;;;;36.05;15.13;;;5.50;99.90;;;;;;4958326;28;20023;-90
2023/02/13 08:49:38;;;;;;;35.00;15.32;;;5.50;99.90;;;;;;4955358;28;20097;-89
2023/02/13 08:52:04;;;;;;;36.35;16.40;;;5.40;99.90;;;;;;4973994;28;20077;-90
2023/02/13 08:54:30;;;;;;;35.65;15.70;;;5.50;99.90;;;;;;4957957;28;20031;-89
2023/02/13 08:56:55;;;;;;;36.88;16.42;;;5.50;99.90;;;;;;4957984;28;20034;-90
2023/02/13 08:59:24;;;;;;;38.17;17.52;;;5.40;99.90;;;;;;4954637;29;20031;-90
2023/02/13 09:01:49;;;;;;;37.63;17.38;;;5.50;99.90;;;;;;4938732;29;20027;-90
2023/02/13 09:04:16;;;;;;;42.08;18.33;;;5.50;99.90;;;;;;4938826;29;20126;-90
2023/02/13 09:06:43;;;;;;;35.30;16.33;;;5.50;99.90;;;;;;4955260;28;20037;-89
2023/02/13 09:09:09;;;;;;;40.05;16.10;;;5.50;99.90;;;;;;4957563;28;20031;-89
2023/02/13 09:11:35;;;;;;;39.88;18.20;;;5.50;99.90;;;;;;4956923;28;20046;-90
2023/02/13 09:14:00;;;;;;;41.28;16.35;;;5.50;99.90;;;;;;4957587;28;20038;-89
2023/02/13 09:16:26;;;;;;;31.25;12.85;;;5.50;99.90;;;;;;4956596;28;20026;-90
2023/02/13 09:18:52;;;;;;;37.78;16.58;;;5.40;99.90;;;;;;4946484;28;20424;-89
2023/02/13 09:21:24;;;;;;;39.08;15.70;;;5.50;99.90;;;;;;4939105;29;20024;-88
2023/02/13 09:23:51;;;;;;;36.70;15.20;;;5.50;99.90;;;;;;4938850;28;20481;-89
2023/02/13 09:26:19;;;;;;;38.00;17.65;;;5.50;99.90;;;;;;4939456;29;20027;-89
2023/02/13 09:28:44;;;;;;;38.15;16.80;;;5.50;99.90;;;;;;4948911;29;20558;-89
2023/02/13 09:31:15;;;;;;;36.03;16.42;;;5.50;99.90;;;;;;4946649;28;20035;-90
2023/02/13 09:33:45;;;;;;;39.78;17.52;;;5.60;99.90;;;;;;4956081;28;20102;-90
2023/02/13 09:36:18;;;;;;;40.03;17.15;;;5.60;99.90;;;;;;4957866;28;20019;-90
2023/02/13 09:38:44;;;;;;;39.97;17.58;;;5.60;99.90;;;;;;4957353;28;20035;-89
2023/02/13 09:41:26;;;;;;;34.03;15.70;;;5.60;99.90;;;;;;4957281;28;20027;-89
2023/02/13 09:44:11;;;;;;;36.67;16.35;;;5.70;99.90;;;;;;4960497;28;20039;-89
2023/02/13 09:46:39;;;;;;;40.80;15.98;;;5.60;99.90;;;;;;4961212;28;20027;-89
2023/02/13 09:49:29;;;;;;;38.03;17.13;;;5.60;99.90;;;;;;4960999;28;20027;-88
2023/02/13 09:51:56;;;;;;;36.95;17.27;;;5.70;99.90;;;;;;4960544;28;20058;-88
2023/02/13 09:54:21;;;;;;;38.75;16.98;;;5.70;99.90;;;;;;4960321;28;20126;-88
2023/02/13 09:57:11;;;;;;;32.47;14.23;;;5.70;99.90;;;;;;4960736;28;20118;-88
2023/02/13 09:59:52;;;;;;;40.30;16.88;;;5.70;99.90;;;;;;4960604;28;20038;-88
2023/02/13 10:02:17;;;;;;;;;;;5.70;99.90;;;;;;4961052;28;20031;-87
2023/02/13 10:05:40;;;;;;;36.05;15.68;;;5.70;99.90;;;;;;4960040;28;20334;-88
2023/02/13 10:08:20;;;;;;;38.55;16.50;;;5.80;99.90;;;;;;4912587;29;20031;-89
2023/02/13 10:11:15;;;;;;;40.75;17.98;;;5.80;99.90;;;;;;4914105;29;20032;-87
2023/02/13 10:14:07;;;;;;;39.08;16.60;;;5.80;99.90;;;;;;4934811;29;20409;-90
2023/02/13 10:16:41;;;;;;;41.17;17.70;;;5.90;99.90;;;;;;4920265;29;20083;-87
2023/02/13 10:19:24;;;;;;;35.50;17.35;;;5.90;99.90;;;;;;4922917;29;20043;-90
2023/02/13 10:22:13;;;;;;;36.65;16.95;;;5.90;99.90;;;;;;4920496;29;20057;-89
2023/02/13 10:24:53;;;;;;;38.05;17.63;;;5.90;99.90;;;;;;4929611;29;20107;-88
2023/02/13 10:27:31;;;;;;;36.65;16.45;;;6.00;99.90;;;;;;4924761;29;20032;-88
2023/02/13 10:30:16;;;;;;;33.10;15.27;;;6.00;99.90;;;;;;4924333;29;20055;-88
2023/02/13 10:33:20;;;;;;;40.47;16.58;;;6.00;99.90;;;;;;4921637;29;20040;-89
2023/02/13 10:35:51;;;;;;;36.25;13.48;;;6.00;99.90;;;;;;4931861;29;20035;-88
2023/02/13 10:38:22;;;;;;;43.70;15.82;;;6.00;99.90;;;;;;4933530;28;20042;-89
2023/02/13 10:41:09;;;;;;;37.10;17.35;;;6.00;99.90;;;;;;4961461;28;20038;-89
2023/02/13 10:43:58;;;;;;;34.75;17.15;;;6.00;99.90;;;;;;4959228;28;20086;-89
2023/02/13 10:46:40;;;;;;;38.10;16.60;;;6.10;99.90;;;;;;4959628;28;20027;-89
2023/02/13 10:49:21;;;;;;;39.67;17.65;;;6.20;99.90;;;;;;4971324;28;20027;-90
2023/02/13 10:52:14;;;;;;;37.50;16.30;;;6.20;99.90;;;;;;4964013;28;20492;-89
2023/02/13 10:54:49;;;;;;;39.65;17.85;;;6.30;99.90;;;;;;4957848;28;20190;-89
2023/02/13 10:57:30;;;;;;;38.63;17.65;;;6.30;99.90;;;;;;4957541;28;20046;-90
2023/02/13 11:00:02;;;;;;;38.88;16.58;;;6.30;99.90;;;;;;4956981;28;20023;-90
2023/02/13 11:02:31;;;;;;;36.15;16.83;;;6.30;99.90;;;;;;4957078;28;20081;-90
2023/02/13 11:05:19;;;;;;;37.85;17.27;;;6.40;99.90;;;;;;4959603;28;20039;-89
2023/02/13 11:07:46;;;;;;;34.55;15.38;;;6.40;99.90;;;;;;4951248;28;20110;-88
2023/02/13 11:10:19;;;;;;;33.97;16.00;;;6.40;99.90;;;;;;4952540;28;20023;-88
2023/02/13 11:12:46;;;;;;;35.85;16.05;;;6.40;99.90;;;;;;4954995;28;20046;-90
2023/02/13 11:15:24;;;;;;;34.50;16.15;;;6.50;99.90;;;;;;4959917;28;20070;-89
2023/02/13 11:17:55;;;;;;;32.10;15.50;;;6.50;99.90;;;;;;4959383;28;20122;-90
2023/02/13 11:20:27;;;;;;;;;;;6.70;99.90;;;;;;4959705;28;20121;-88
2023/02/13 11:22:54;;;;;;;37.42;16.98;;;6.70;99.90;;;;;;4973377;28;20328;-88
2023/02/13 11:25:25;;;;;;;36.28;16.23;;;6.70;99.90;;;;;;4975627;28;20042;-89
2023/02/13 11:28:09;;;;;;;36.70;16.30;;;6.80;99.90;;;;;;4964678;28;20086;-90
2023/02/13 11:30:37;;;;;;;38.97;17.50;;;6.90;99.90;;;;;;4956876;28;20530;-90
2023/02/13 11:33:21;;;;;;;40.58;18.15;;;6.90;99.90;;;;;;4958681;28;20027;-89
2023/02/13 11:35:47;;;;;;;37.55;17.90;;;6.90;99.90;;;;;;4959910;28;20023;-90
2023/02/13 11:38:23;;;;;;;40.58;16.67;;;7.00;99.90;;;;;;4959687;28;20023;-89
2023/02/13 11:41:02;;;;;;;37.22;17.20;;;7.10;99.90;;;;;;4959577;28;20542;-87
2023/02/13 11:43:34;;;;;;;39.67;15.98;;;7.30;99.90;;;;;;4959931;28;20027;-90
2023/02/13 11:46:21;;;;;;;33.90;15.02;;;7.60;99.90;;;;;;4959646;28;20041;-89
2023/02/13 11:49:06;;;;;;;35.35;16.65;;;7.80;99.90;;;;;;4959504;28;20026;-89
2023/02/13 11:51:42;;;;;;;31.23;15.02;;;7.90;99.90;;;;;;4959247;28;20484;-90
2023/02/13 11:54:26;;;;;;;33.42;15.50;;;8.10;99.90;;;;;;4959983;28;20029;-89
2023/02/13 11:56:54;;;;;;;29.92;14.95;;;8.30;99.90;;;;;;4959377;28;20058;-89
2023/02/13 11:59:25;;;;;;;33.58;15.60;;;8.30;99.90;;;;;;4959759;28;20027;-89
2023/02/13 12:02:02;;;;;;;;;;;8.40;99.90;;;;;;4959666;28;20084;-89
2023/02/13 12:04:27;;;;;;;32.45;15.55;;;8.40;99.90;;;;;;4959135;28;19906;-88
2023/02/13 12:07:02;;;;;;;28.85;14.55;;;8.40;99.90;;;;;;4954139;29;20090;-88
2023/02/13 12:09:33;;;;;;;33.05;15.73;;;8.50;99.90;;;;;;4939960;29;20041;-89
2023/02/13 12:12:04;;;;;;;31.65;15.57;;;8.80;99.90;;;;;;4939608;29;20115;-89
2023/02/13 12:14:36;;;;;;;31.50;15.18;;;9.20;99.90;;;;;;4958233;28;20023;-89
2023/02/13 12:17:02;;;;;;;31.02;15.45;;;9.60;99.90;;;;;;4958535;28;20038;-89
2023/02/13 12:19:34;;;;;;;31.75;15.35;;;10.20;99.90;;;;;;4958870;28;20031;-88
2023/02/13 12:22:08;;;;;;;32.13;15.70;;;10.70;99.90;;;;;;4958615;28;20593;-89
2023/02/13 12:27:57;;;;;;;30.60;15.60;;;11.30;99.90;;;;;;4953423;29;20031;-91
2023/02/13 12:30:34;;;;;;;25.60;13.93;;;11.50;99.90;;;;;;4954406;29;20102;-90
2023/02/13 12:33:15;;;;;;;30.05;15.52;;;11.50;99.90;;;;;;4937273;29;20039;-90
2023/02/13 12:36:04;;;;;;;32.45;14.63;;;11.50;99.90;;;;;;4952658;28;20449;-87
2023/02/13 12:38:38;;;;;;;30.83;15.98;;;11.50;99.90;;;;;;4951052;29;20864;-90
2023/02/13 12:41:13;;;;;;;27.23;13.93;;;11.80;99.90;;;;;;4934770;29;20032;-89
2023/02/13 12:44:17;;;;;;;27.77;14.90;;;12.00;99.90;;;;;;4951441;29;20099;-90
2023/02/13 12:47:17;;;;;;;28.25;14.88;;;12.10;99.90;;;;;;4961925;28;20023;-89
2023/02/13 12:50:12;;;;;;;29.00;14.53;;;12.30;99.10;;;;;;4953365;29;20110;-88
2023/02/13 12:52:56;;;;;;;29.45;15.10;;;12.30;97.20;;;;;;4938789;29;20121;-89
2023/02/13 12:56:01;;;;;;;30.38;15.48;;;12.10;96.70;;;;;;4939988;29;20078;-89
2023/02/13 12:58:56;;;;;;;29.48;16.15;;;11.80;96.70;;;;;;4953832;29;20260;-88
2023/02/13 13:02:06;;;;;;;30.10;14.73;;;11.70;97.40;;;;;;4936980;29;20169;-89
2023/02/13 13:04:40;;;;;;;36.75;15.43;;;12.00;97.80;;;;;;4953905;29;20073;-91
2023/02/13 13:07:24;;;;;;;32.20;16.90;;;12.20;96.50;;;;;;4953528;29;20027;-88
2023/02/13 13:09:55;;;;;;;32.90;16.02;;;12.20;95.80;;;;;;4953099;29;20500;-89
2023/02/13 13:12:39;;;;;;;;;;;12.30;95.20;;;;;;4954798;29;20388;-88
2023/02/13 13:15:59;;;;;;;35.58;16.08;;;12.30;95.20;;;;;;4953676;28;19950;-87
2023/02/13 13:18:44;;;;;;;27.83;14.43;;;12.70;95.30;;;;;;4879671;29;20036;-87
2023/02/13 13:21:24;;;;;;;27.77;14.15;;;13.20;94.00;;;;;;4901616;29;20043;-91
2023/02/13 13:23:59;;;;;;;31.02;16.23;;;13.50;93.20;;;;;;4881281;29;20080;-90
2023/02/13 13:26:48;;;;;;;30.88;15.43;;;13.90;92.70;;;;;;4881000;29;20486;-90
2023/02/13 13:29:47;;;;;;;31.30;16.13;;;14.40;91.90;;;;;;4916530;29;20036;-90
2023/02/13 13:32:17;;;;;;;28.70;15.50;;;14.70;89.80;;;;;;4900082;29;20131;-89
2023/02/13 13:34:44;;;;;;;31.40;15.63;;;14.60;89.00;;;;;;4900234;29;20065;-90
2023/02/13 13:37:32;;;;;;;33.92;16.35;;;14.80;87.60;;;;;;4922266;29;20132;-89
2023/02/13 13:40:25;;;;;;;28.85;16.20;;;14.90;86.30;;;;;;4912920;29;20028;-90
2023/02/13 13:43:02;;;;;;;32.83;16.48;;;14.90;84.50;;;;;;4906221;29;20047;-90
2023/02/13 13:45:52;;;;;;;28.08;15.63;;;14.80;83.10;;;;;;4906086;29;20028;-88